createdAt,value
2022-08-27T00:01:21.991Z,100759.00
2022-08-27T00:03:48.513Z,100757.00
2022-08-27T00:06:17.401Z,100749.00
2022-08-27T00:08:44.781Z,100761.00
2022-08-27T00:11:13.455Z,100750.00
2022-08-27T00:13:40.592Z,100749.00
2022-08-27T00:16:09.917Z,100745.00
2022-08-27T00:18:37.693Z,100741.00
2022-08-27T00:21:04.731Z,100751.00
2022-08-27T00:23:33.580Z,100758.00
2022-08-27T00:26:00.249Z,100754.00
2022-08-27T00:28:28.162Z,100752.00
2022-08-27T00:30:57.703Z,100755.00
2022-08-27T00:33:25.664Z,100751.00
2022-08-27T00:35:52.834Z,100748.00
2022-08-27T00:38:21.462Z,100753.00
2022-08-27T00:40:48.413Z,100748.00
2022-08-27T00:43:24.779Z,100759.00
2022-08-27T00:45:54.615Z,100753.00
2022-08-27T00:48:24.255Z,100748.00
2022-08-27T00:50:54.258Z,100748.00
2022-08-27T00:53:23.755Z,100747.00
2022-08-27T00:55:56.883Z,100740.00
2022-08-27T00:58:28.593Z,100738.00
2022-08-27T01:00:56.199Z,100738.00
2022-08-27T01:03:23.049Z,100733.00
2022-08-27T01:05:50.570Z,100732.00
2022-08-27T01:08:26.853Z,100732.00
2022-08-27T01:10:56.818Z,100731.00
2022-08-27T01:13:54.098Z,100725.00
2022-08-27T01:16:19.785Z,100726.00
2022-08-27T01:18:46.574Z,100740.00
2022-08-27T01:21:30.094Z,100746.00
2022-08-27T01:24:09.308Z,100735.00
2022-08-27T01:26:35.896Z,100742.00
2022-08-27T01:29:02.687Z,100738.00
2022-08-27T01:31:30.019Z,100745.00
2022-08-27T01:34:00.615Z,100744.00
2022-08-27T01:36:27.999Z,100747.00
2022-08-27T01:38:55.499Z,100746.00
2022-08-27T01:41:24.891Z,100754.00
2022-08-27T01:43:52.827Z,100743.00
2022-08-27T01:46:24.133Z,100744.00
2022-08-27T01:48:50.788Z,100743.00
2022-08-27T01:51:17.901Z,100748.00
2022-08-27T01:53:44.592Z,100751.00
2022-08-27T01:56:11.503Z,100753.00
2022-08-27T01:58:38.800Z,100753.00
2022-08-27T02:01:12.328Z,100758.00
2022-08-27T02:03:40.490Z,100757.00
2022-08-27T02:06:09.239Z,100759.00
2022-08-27T02:08:35.766Z,100761.00
2022-08-27T02:11:02.654Z,100753.00
2022-08-27T02:13:29.306Z,100765.00
2022-08-27T02:15:56.009Z,100755.00
2022-08-27T02:18:22.636Z,100756.00
2022-08-27T02:20:49.154Z,100758.00
2022-08-27T02:23:16.766Z,100755.00
2022-08-27T02:25:43.377Z,100753.00
2022-08-27T02:28:10.341Z,100754.00
2022-08-27T02:30:37.501Z,100750.00
2022-08-27T02:33:05.701Z,100755.00
2022-08-27T02:35:34.599Z,100747.00
2022-08-27T02:38:02.397Z,100754.00
2022-08-27T02:40:29.625Z,100756.00
2022-08-27T02:42:56.139Z,100748.00
2022-08-27T02:45:22.651Z,100746.00
2022-08-27T02:47:49.407Z,100750.00
2022-08-27T02:50:16.535Z,100750.00
2022-08-27T02:52:45.276Z,100748.00
2022-08-27T02:55:13.286Z,100760.00
2022-08-27T02:57:40.402Z,100760.00
2022-08-27T03:00:10.961Z,100762.00
2022-08-27T03:02:37.932Z,100758.00
2022-08-27T03:05:05.771Z,100752.00
2022-08-27T03:07:32.218Z,100762.00
2022-08-27T03:09:58.878Z,100759.00
2022-08-27T03:12:25.520Z,100768.00
2022-08-27T03:14:52.066Z,100768.00
2022-08-27T03:17:37.225Z,100770.00
2022-08-27T03:20:05.164Z,100774.00
2022-08-27T03:22:31.616Z,100778.00
2022-08-27T03:24:58.059Z,100774.00
2022-08-27T03:27:24.655Z,100770.00
2022-08-27T03:29:51.547Z,100765.00
2022-08-27T03:32:18.015Z,100767.00
2022-08-27T03:34:44.593Z,100766.00
2022-08-27T03:37:11.287Z,100762.00
2022-08-27T03:39:37.778Z,100755.00
2022-08-27T03:42:04.460Z,100754.00
2022-08-27T03:44:31.592Z,100749.00
2022-08-27T03:46:58.206Z,100753.00
2022-08-27T03:49:24.743Z,100742.00
2022-08-27T03:51:53.199Z,100751.00
2022-08-27T03:54:20.160Z,100737.00
2022-08-27T03:56:47.181Z,100740.00
2022-08-27T03:59:15.408Z,100734.00
2022-08-27T04:01:42.110Z,100735.00
2022-08-27T04:04:08.610Z,100736.00
2022-08-27T04:06:35.428Z,100737.00
2022-08-27T04:09:02.626Z,100738.00
2022-08-27T04:11:29.453Z,100731.00
2022-08-27T04:13:56.099Z,100732.00
2022-08-27T04:16:22.730Z,100736.00
2022-08-27T04:18:49.242Z,100737.00
2022-08-27T04:21:15.787Z,100741.00
2022-08-27T04:23:42.594Z,100734.00
2022-08-27T04:26:10.964Z,100737.00
2022-08-27T04:28:38.965Z,100737.00
2022-08-27T04:31:06.214Z,100738.00
2022-08-27T04:33:34.688Z,100746.00
2022-08-27T04:36:04.347Z,100748.00
2022-08-27T04:38:31.060Z,100752.00
2022-08-27T04:41:17.614Z,100753.00
2022-08-27T04:43:44.263Z,100757.00
2022-08-27T04:46:10.758Z,100754.00
2022-08-27T04:48:38.536Z,100756.00
2022-08-27T04:51:05.221Z,100752.00
2022-08-27T04:53:33.316Z,100755.00
2022-08-27T04:56:00.732Z,100761.00
2022-08-27T04:58:27.529Z,100755.00
2022-08-27T05:00:56.714Z,100759.00
2022-08-27T05:03:24.190Z,100760.00
2022-08-27T05:05:53.102Z,100752.00
2022-08-27T05:08:20.223Z,100753.00
2022-08-27T05:10:49.879Z,100753.00
2022-08-27T05:13:18.836Z,100763.00
2022-08-27T05:15:46.271Z,100766.00
2022-08-27T05:18:13.703Z,100771.00
2022-08-27T05:20:48.540Z,100761.00
2022-08-27T05:23:17.302Z,100762.00
2022-08-27T05:25:46.496Z,100756.00
2022-08-27T05:28:14.510Z,100758.00
2022-08-27T05:30:52.557Z,100755.00
2022-08-27T05:33:24.685Z,100758.00
2022-08-27T05:35:55.068Z,100755.00
2022-08-27T05:38:24.635Z,100751.00
2022-08-27T05:40:51.134Z,100746.00
2022-08-27T05:43:18.737Z,100756.00
2022-08-27T05:45:48.560Z,100758.00
2022-08-27T05:48:16.188Z,100743.00
2022-08-27T05:50:44.975Z,100754.00
2022-08-27T05:53:12.928Z,100749.00
2022-08-27T05:55:42.374Z,100748.00
2022-08-27T05:58:29.880Z,100755.00
2022-08-27T06:01:09.618Z,100754.00
2022-08-27T06:03:38.168Z,100751.00
2022-08-27T06:06:08.050Z,100750.00
2022-08-27T06:08:34.803Z,100758.00
2022-08-27T06:11:02.353Z,100758.00
2022-08-27T06:13:30.222Z,100766.00
2022-08-27T06:16:14.012Z,100764.00
2022-08-27T06:18:41.985Z,100767.00
2022-08-27T06:21:08.615Z,100764.00
2022-08-27T06:23:35.793Z,100764.00
2022-08-27T06:26:07.080Z,100762.00
2022-08-27T06:28:34.315Z,100761.00
2022-08-27T06:31:16.278Z,100763.00
2022-08-27T06:33:44.316Z,100759.00
2022-08-27T06:36:14.076Z,100761.00
2022-08-27T06:38:41.994Z,100773.00
2022-08-27T06:41:16.345Z,100780.00
2022-08-27T06:43:50.331Z,100780.00
2022-08-27T06:46:19.183Z,100781.00
2022-08-27T06:48:46.990Z,100786.00
2022-08-27T06:51:17.579Z,100785.00
2022-08-27T06:53:46.963Z,100792.00
2022-08-27T06:56:15.982Z,100787.00
2022-08-27T06:58:43.670Z,100797.00
2022-08-27T07:01:19.270Z,100797.00
2022-08-27T07:03:46.020Z,100797.00
2022-08-27T07:06:16.535Z,100796.00
2022-08-27T07:08:53.617Z,100797.00
2022-08-27T07:11:21.160Z,100797.00
2022-08-27T07:13:49.262Z,100806.00
2022-08-27T07:16:23.165Z,100797.00
2022-08-27T07:18:51.679Z,100801.00
2022-08-27T07:21:21.530Z,100808.00
2022-08-27T07:23:49.881Z,100811.00
2022-08-27T07:26:19.845Z,100817.00
2022-08-27T07:28:46.826Z,100816.00
2022-08-27T07:31:19.125Z,100810.00
2022-08-27T07:33:51.526Z,100812.00
2022-08-27T07:36:21.200Z,100817.00
2022-08-27T07:38:48.436Z,100814.00
2022-08-27T07:41:23.753Z,100807.00
2022-08-27T07:44:17.653Z,100808.00
2022-08-27T07:46:48.455Z,100815.00
2022-08-27T07:49:19.368Z,100806.00
2022-08-27T07:51:46.235Z,100810.00
2022-08-27T07:54:12.787Z,100811.00
2022-08-27T07:56:39.251Z,100816.00
2022-08-27T07:59:05.884Z,100814.00
2022-08-27T08:01:32.573Z,100811.00
2022-08-27T08:03:59.218Z,100807.00
2022-08-27T08:06:26.005Z,100811.00
2022-08-27T08:08:52.525Z,100808.00
2022-08-27T08:11:20.660Z,100809.00
2022-08-27T08:13:47.955Z,100809.00
2022-08-27T08:16:14.596Z,100812.00
2022-08-27T08:18:41.098Z,100811.00
2022-08-27T08:21:11.154Z,100807.00
2022-08-27T08:23:38.420Z,100810.00
2022-08-27T08:26:06.539Z,100816.00
2022-08-27T08:28:33.107Z,100820.00
2022-08-27T08:30:59.731Z,100821.00
2022-08-27T08:33:27.623Z,100821.00
2022-08-27T08:35:54.432Z,100819.00
2022-08-27T08:38:21.446Z,100815.00
2022-08-27T08:40:50.539Z,100810.00
2022-08-27T08:43:28.824Z,100807.00
2022-08-27T08:46:00.485Z,100808.00
2022-08-27T08:48:29.640Z,100807.00
2022-08-27T08:51:01.211Z,100810.00
2022-08-27T08:53:42.953Z,100802.00
2022-08-27T08:56:15.229Z,100807.00
2022-08-27T08:58:48.013Z,100797.00
2022-08-27T09:01:18.433Z,100797.00
2022-08-27T09:03:52.190Z,100793.00
2022-08-27T09:06:38.985Z,100778.00
2022-08-27T09:09:32.695Z,100779.00
2022-08-27T09:12:03.692Z,100783.00
2022-08-27T09:14:46.216Z,100790.00
2022-08-27T09:17:12.975Z,100795.00
2022-08-27T09:19:39.710Z,100797.00
2022-08-27T09:22:48.451Z,100797.00
2022-08-27T09:25:25.435Z,100795.00
2022-08-27T09:27:56.277Z,100794.00
2022-08-27T09:30:30.308Z,100791.00
2022-08-27T09:33:00.427Z,100793.00
2022-08-27T09:35:34.243Z,100790.00
2022-08-27T09:38:02.763Z,100787.00
2022-08-27T09:40:38.293Z,100784.00
2022-08-27T09:43:08.148Z,100781.00
2022-08-27T09:45:35.327Z,100775.00
2022-08-27T09:48:08.089Z,100770.00
2022-08-27T09:50:43.394Z,100770.00
2022-08-27T09:53:20.795Z,100770.00
2022-08-27T09:55:53.475Z,100771.00
2022-08-27T09:58:23.855Z,100773.00
2022-08-27T10:01:04.926Z,100779.00
2022-08-27T10:03:33.558Z,100789.00
2022-08-27T10:06:00.427Z,100791.00
2022-08-27T10:08:41.073Z,100797.00
2022-08-27T10:11:31.309Z,100803.00
2022-08-27T10:14:13.792Z,100812.00
2022-08-27T10:16:47.185Z,100809.00
2022-08-27T10:19:43.508Z,100812.00
2022-08-27T10:22:35.886Z,100813.00
2022-08-27T10:25:43.417Z,100822.00
2022-08-27T10:28:30.595Z,100828.00
2022-08-27T10:31:36.130Z,100826.00
2022-08-27T10:34:27.274Z,100823.00
2022-08-27T10:37:08.525Z,100816.00
2022-08-27T10:39:58.671Z,100818.00
2022-08-27T10:42:44.104Z,100826.00
2022-08-27T10:45:30.505Z,100823.00
2022-08-27T10:48:26.290Z,100828.00
2022-08-27T10:51:04.405Z,100833.00
2022-08-27T10:53:41.266Z,100824.00
2022-08-27T10:56:16.814Z,100829.00
2022-08-27T10:58:59.638Z,100833.00
2022-08-27T11:02:03.757Z,100829.00
2022-08-27T11:04:40.676Z,100835.00
2022-08-27T11:07:14.999Z,100839.00
2022-08-27T11:09:41.578Z,100847.00
2022-08-27T11:12:14.548Z,100851.00
2022-08-27T11:14:54.227Z,100844.00
2022-08-27T11:17:32.271Z,100844.00
2022-08-27T11:20:24.102Z,100854.00
2022-08-27T11:23:15.046Z,100852.00
2022-08-27T11:26:02.030Z,100848.00
2022-08-27T11:28:38.828Z,100856.00
2022-08-27T11:31:24.297Z,100850.00
2022-08-27T11:34:25.471Z,100852.00
2022-08-27T11:37:21.745Z,100852.00
2022-08-27T11:39:58.506Z,100850.00
2022-08-27T11:42:48.862Z,100852.00
2022-08-27T11:45:17.012Z,100847.00
2022-08-27T11:47:55.603Z,100850.00
2022-08-27T11:50:24.092Z,100855.00
2022-08-27T11:53:00.766Z,100854.00
2022-08-27T11:55:35.929Z,100849.00
2022-08-27T11:58:09.587Z,100848.00
2022-08-27T12:00:42.122Z,100846.00
2022-08-27T12:03:30.738Z,100845.00
2022-08-27T12:05:58.882Z,100847.00
2022-08-27T12:08:30.521Z,100846.00
2022-08-27T12:11:02.798Z,100843.00
2022-08-27T12:13:34.334Z,100848.00
2022-08-27T12:16:36.048Z,100851.00
2022-08-27T12:19:23.320Z,100850.00
2022-08-27T12:22:11.341Z,100848.00
2022-08-27T12:24:58.220Z,100836.00
2022-08-27T12:27:28.378Z,100828.00
2022-08-27T12:30:26.609Z,100816.00
2022-08-27T12:32:54.414Z,100808.00
2022-08-27T12:35:31.682Z,100805.00
2022-08-27T12:38:13.479Z,100804.00
2022-08-27T12:40:54.654Z,100805.00
2022-08-27T12:43:27.490Z,100813.00
2022-08-27T12:46:15.676Z,100802.00
2022-08-27T12:48:48.383Z,100815.00
2022-08-27T12:51:26.591Z,100818.00
2022-08-27T12:54:29.001Z,100829.00
2022-08-27T12:57:15.519Z,100828.00
2022-08-27T13:00:10.826Z,100820.00
2022-08-27T13:02:54.868Z,100817.00
2022-08-27T13:05:22.995Z,100820.00
2022-08-27T13:07:51.416Z,100817.00
2022-08-27T13:10:29.586Z,100821.00
2022-08-27T13:13:17.200Z,100810.00
2022-08-27T13:15:47.116Z,100810.00
2022-08-27T13:18:14.571Z,100813.00
2022-08-27T13:20:41.212Z,100817.00
2022-08-27T13:23:27.178Z,100814.00
2022-08-27T13:25:59.543Z,100780.00
2022-08-27T13:28:28.038Z,100787.00
2022-08-27T13:30:55.446Z,100784.00
2022-08-27T13:33:27.984Z,100786.00
2022-08-27T13:35:57.119Z,100779.00
2022-08-27T13:38:26.754Z,100793.00
2022-08-27T13:41:07.072Z,100784.00
2022-08-27T13:43:38.292Z,100777.00
2022-08-27T13:46:12.090Z,100782.00
2022-08-27T13:48:43.591Z,100811.00
2022-08-27T13:51:11.901Z,100811.00
2022-08-27T13:54:03.646Z,100817.00
2022-08-27T13:56:32.921Z,100831.00
2022-08-27T13:59:12.369Z,100816.00
2022-08-27T14:01:53.770Z,100823.00
2022-08-27T14:04:24.437Z,100822.00
2022-08-27T14:06:50.846Z,100822.00
2022-08-27T14:09:29.177Z,100822.00
2022-08-27T14:12:05.995Z,100826.00
2022-08-27T14:14:40.075Z,100824.00
2022-08-27T14:17:19.428Z,100823.00
2022-08-27T14:19:45.902Z,100829.00
2022-08-27T14:22:12.516Z,100823.00
2022-08-27T14:24:38.982Z,100828.00
2022-08-27T14:27:10.367Z,100832.00
2022-08-27T14:29:36.909Z,100821.00
2022-08-27T14:32:03.623Z,100829.00
2022-08-27T14:34:30.059Z,100826.00
2022-08-27T14:36:56.552Z,100824.00
2022-08-27T14:39:26.585Z,100802.00
2022-08-27T14:41:53.618Z,100819.00
2022-08-27T14:44:21.487Z,100823.00
2022-08-27T14:46:48.050Z,100823.00
2022-08-27T14:49:19.994Z,100822.00
2022-08-27T14:51:46.638Z,100827.00
2022-08-27T14:54:13.104Z,100832.00
2022-08-27T14:56:39.740Z,100831.00
2022-08-27T14:59:06.840Z,100823.00
2022-08-27T15:01:38.189Z,100818.00
2022-08-27T15:04:05.815Z,100824.00
2022-08-27T15:06:32.668Z,100825.00
2022-08-27T15:09:00.242Z,100831.00
2022-08-27T15:11:31.395Z,100838.00
2022-08-27T15:14:00.167Z,100838.00
2022-08-27T15:16:35.858Z,100838.00
2022-08-27T15:19:02.838Z,100844.00
2022-08-27T15:21:30.603Z,100839.00
2022-08-27T15:24:03.183Z,100848.00
2022-08-27T15:26:29.774Z,100845.00
2022-08-27T15:28:56.362Z,100851.00
2022-08-27T15:31:22.945Z,100845.00
2022-08-27T15:33:49.445Z,100848.00
2022-08-27T15:36:16.303Z,100854.00
2022-08-27T15:38:44.076Z,100853.00
2022-08-27T15:41:13.309Z,100846.00
2022-08-27T15:43:39.812Z,100844.00
2022-08-27T15:46:06.749Z,100854.00
2022-08-27T15:48:33.543Z,100848.00
2022-08-27T15:51:06.999Z,100846.00
2022-08-27T15:53:34.585Z,100853.00
2022-08-27T15:56:03.904Z,100856.00
2022-08-27T15:58:30.703Z,100853.00
2022-08-27T16:01:06.243Z,100849.00
2022-08-27T16:03:35.837Z,100852.00
2022-08-27T16:06:03.868Z,100859.00
2022-08-27T16:08:32.424Z,100857.00
2022-08-27T16:11:03.833Z,100857.00
2022-08-27T16:13:30.954Z,100860.00
2022-08-27T16:15:57.954Z,100857.00
2022-08-27T16:18:29.904Z,100852.00
2022-08-27T16:20:58.255Z,100864.00
2022-08-27T16:23:28.739Z,100868.00
2022-08-27T16:25:56.471Z,100865.00
2022-08-27T16:28:23.959Z,100871.00
2022-08-27T16:30:53.705Z,100877.00
2022-08-27T16:33:21.462Z,100873.00
2022-08-27T16:35:48.314Z,100873.00
2022-08-27T16:38:15.013Z,100868.00
2022-08-27T16:40:46.594Z,100872.00
2022-08-27T16:43:15.845Z,100880.00
2022-08-27T16:45:42.283Z,100882.00
2022-08-27T16:48:28.162Z,100884.00
2022-08-27T16:50:54.606Z,100880.00
2022-08-27T16:53:22.158Z,100892.00
2022-08-27T16:55:49.961Z,100879.00
2022-08-27T16:58:19.866Z,100883.00
2022-08-27T17:00:50.476Z,100882.00
2022-08-27T17:03:19.080Z,100879.00
2022-08-27T17:05:46.958Z,100878.00
2022-08-27T17:08:17.965Z,100880.00
2022-08-27T17:10:47.470Z,100892.00
2022-08-27T17:13:16.365Z,100888.00
2022-08-27T17:15:43.563Z,100894.00
2022-08-27T17:18:10.592Z,100894.00
2022-08-27T17:20:37.445Z,100899.00
2022-08-27T17:23:04.719Z,100897.00
2022-08-27T17:25:31.242Z,100907.00
2022-08-27T17:28:00.404Z,100900.00
2022-08-27T17:30:27.365Z,100898.00
2022-08-27T17:32:54.114Z,100911.00
2022-08-27T17:35:20.612Z,100913.00
2022-08-27T17:37:47.101Z,100916.00
2022-08-27T17:40:13.642Z,100920.00
2022-08-27T17:42:40.335Z,100918.00
2022-08-27T17:45:07.254Z,100928.00
2022-08-27T17:47:33.714Z,100931.00
2022-08-27T17:50:02.222Z,100932.00
2022-08-27T17:52:29.081Z,100940.00
2022-08-27T17:54:57.119Z,100936.00
2022-08-27T17:57:27.155Z,100939.00
2022-08-27T17:59:55.248Z,100936.00
2022-08-27T18:02:27.739Z,100934.00
2022-08-27T18:04:54.543Z,100939.00
2022-08-27T18:07:21.416Z,100943.00
2022-08-27T18:09:48.266Z,100943.00
2022-08-27T18:12:17.812Z,100942.00
2022-08-27T18:14:56.558Z,100952.00
2022-08-27T18:17:23.115Z,100948.00
2022-08-27T18:19:51.397Z,100955.00
2022-08-27T18:22:18.024Z,100955.00
2022-08-27T18:24:44.532Z,100954.00
2022-08-27T18:27:11.013Z,100957.00
2022-08-27T18:29:37.490Z,100962.00
2022-08-27T18:32:04.954Z,100973.00
2022-08-27T18:34:32.638Z,100962.00
2022-08-27T18:37:00.590Z,100970.00
2022-08-27T18:39:28.210Z,100964.00
2022-08-27T18:41:54.899Z,100967.00
2022-08-27T18:44:21.623Z,100975.00
2022-08-27T18:46:48.256Z,100969.00
2022-08-27T18:49:14.941Z,100974.00
2022-08-27T18:51:43.295Z,100979.00
2022-08-27T18:54:10.368Z,100985.00
2022-08-27T18:56:36.961Z,100986.00
2022-08-27T18:59:04.316Z,100981.00
2022-08-27T19:01:32.132Z,100982.00
2022-08-27T19:03:58.931Z,100980.00
2022-08-27T19:06:25.583Z,100981.00
2022-08-27T19:08:52.187Z,100980.00
2022-08-27T19:11:20.193Z,100987.00
2022-08-27T19:13:50.477Z,100980.00
2022-08-27T19:16:20.622Z,100981.00
2022-08-27T19:18:47.811Z,100979.00
2022-08-27T19:21:14.347Z,100980.00
2022-08-27T19:23:40.906Z,100981.00
2022-08-27T19:26:15.724Z,100978.00
2022-08-27T19:28:45.094Z,100983.00
2022-08-27T19:31:13.167Z,100979.00
2022-08-27T19:33:40.164Z,100986.00
2022-08-27T19:36:12.499Z,100980.00
2022-08-27T19:38:41.692Z,100990.00
2022-08-27T19:41:08.136Z,100985.00
2022-08-27T19:43:34.595Z,100985.00
2022-08-27T19:46:03.735Z,100987.00
2022-08-27T19:48:31.307Z,100996.00
2022-08-27T19:50:59.147Z,100994.00
2022-08-27T19:53:25.676Z,100988.00
2022-08-27T19:55:54.984Z,101001.00
2022-08-27T19:58:21.621Z,101003.00
2022-08-27T20:00:48.797Z,101000.00
2022-08-27T20:03:15.440Z,101000.00
2022-08-27T20:05:42.002Z,101010.00
2022-08-27T20:08:09.159Z,101005.00
2022-08-27T20:10:36.514Z,101014.00
2022-08-27T20:13:04.337Z,101011.00
2022-08-27T20:15:30.798Z,101008.00
2022-08-27T20:17:59.280Z,101005.00
2022-08-27T20:20:27.329Z,101005.00
2022-08-27T20:22:55.304Z,101015.00
2022-08-27T20:25:23.195Z,101019.00
2022-08-27T20:27:51.938Z,101014.00
2022-08-27T20:30:22.701Z,101013.00
2022-08-27T20:32:50.656Z,101021.00
2022-08-27T20:35:18.307Z,101024.00
2022-08-27T20:37:46.170Z,101014.00
2022-08-27T20:40:22.028Z,101024.00
2022-08-27T20:42:48.829Z,101017.00
2022-08-27T20:45:17.408Z,101023.00
2022-08-27T20:47:46.214Z,101021.00
2022-08-27T20:50:14.397Z,101015.00
2022-08-27T20:52:42.483Z,101022.00
2022-08-27T20:55:09.787Z,101021.00
2022-08-27T20:57:58.240Z,101021.00
2022-08-27T21:00:26.626Z,101018.00
2022-08-27T21:02:55.056Z,101020.00
2022-08-27T21:05:22.537Z,101025.00
2022-08-27T21:07:50.748Z,101018.00
2022-08-27T21:10:18.570Z,101021.00
2022-08-27T21:12:45.448Z,101019.00
2022-08-27T21:15:12.867Z,101023.00
2022-08-27T21:17:39.318Z,101022.00
2022-08-27T21:20:08.722Z,101026.00
2022-08-27T21:22:35.333Z,101019.00
2022-08-27T21:25:01.783Z,101020.00
2022-08-27T21:27:28.431Z,101011.00
2022-08-27T21:29:54.900Z,101010.00
2022-08-27T21:32:21.476Z,101022.00
2022-08-27T21:34:48.215Z,101014.00
2022-08-27T21:37:16.250Z,101023.00
2022-08-27T21:39:44.051Z,101019.00
2022-08-27T21:42:12.447Z,101020.00
2022-08-27T21:44:39.125Z,101015.00
2022-08-27T21:47:06.099Z,101016.00
2022-08-27T21:49:33.333Z,101021.00
2022-08-27T21:52:03.295Z,101019.00
2022-08-27T21:54:31.914Z,101019.00
2022-08-27T21:56:58.480Z,101018.00
2022-08-27T21:59:24.952Z,101021.00
2022-08-27T22:02:00.206Z,101018.00
2022-08-27T22:04:29.855Z,101020.00
2022-08-27T22:06:58.236Z,101022.00
2022-08-27T22:09:24.727Z,101023.00
2022-08-27T22:11:51.200Z,101020.00
2022-08-27T22:14:17.653Z,101026.00
2022-08-27T22:16:44.126Z,101022.00
2022-08-27T22:19:10.567Z,101021.00
2022-08-27T22:21:37.553Z,101021.00
2022-08-27T22:24:04.033Z,101023.00
2022-08-27T22:26:31.343Z,101024.00
2022-08-27T22:28:57.812Z,101023.00
2022-08-27T22:31:24.340Z,101016.00
2022-08-27T22:33:50.994Z,101014.00
2022-08-27T22:36:17.497Z,101025.00
2022-08-27T22:38:45.650Z,101021.00
2022-08-27T22:41:14.577Z,101025.00
2022-08-27T22:43:45.270Z,101014.00
2022-08-27T22:46:11.778Z,101008.00
2022-08-27T22:48:38.519Z,101021.00
2022-08-27T22:51:05.214Z,101016.00
2022-08-27T22:53:31.906Z,101010.00
2022-08-27T22:55:59.624Z,101019.00
2022-08-27T22:58:26.561Z,101020.00
2022-08-27T23:00:54.653Z,101011.00
2022-08-27T23:03:21.778Z,101012.00
2022-08-27T23:05:48.860Z,101010.00
2022-08-27T23:08:15.637Z,101005.00
2022-08-27T23:10:43.124Z,101007.00
2022-08-27T23:13:10.759Z,101017.00
2022-08-27T23:15:38.582Z,101013.00
2022-08-27T23:18:05.474Z,101019.00
2022-08-27T23:20:32.398Z,101012.00
2022-08-27T23:22:59.011Z,101018.00
2022-08-27T23:25:44.867Z,101020.00
2022-08-27T23:28:14.825Z,101014.00
2022-08-27T23:30:42.849Z,101004.00
2022-08-27T23:33:09.661Z,101004.00
2022-08-27T23:35:36.219Z,101012.00
2022-08-27T23:38:02.675Z,101009.00
2022-08-27T23:40:29.247Z,101011.00
2022-08-27T23:42:57.174Z,101015.00
2022-08-27T23:45:25.479Z,101017.00
2022-08-27T23:47:52.380Z,101009.00
2022-08-27T23:50:19.444Z,101013.00
2022-08-27T23:52:45.900Z,101015.00
2022-08-27T23:55:12.711Z,101021.00
2022-08-27T23:57:39.916Z,101021.00
